Half Way, Missouri
Current Conditions -  °F | °C
As of 10:52 PM on Friday 24 Oct 2014 (Local Time) from KSGF Reporting Station
Clear Clear  
Wind Chill: 61°   Ceiling: Unl
Heat Index: 61°   Visibility: 10mi
Dew Point: 58°   Wind: 8mph
Humidity: 90%   Direction: 180°S
Pressure: 30.06"   Gusts: NA
Location:  37.62°N, 93.24°W
Report Text: KSGF 250352Z 18007KT 10SM CLR 16/14 A3006 RMK AO2 SLP173 T01610144
Loading
Personal Weather Stations






























Interactive Weather Map
Tropical Storm Tracking
New forecast layout! Learn more

10-Day Weather Forecast

Advertisements
Track Severe Weather on mobile